Station: Kingscote

  Atmospheric Gas Attenuation - ITU Rec 676-11   --------------- db/100km ---------------
Date Time Temp RH % AH g/m3 Dew Point Wind Direction Speed kph Gust kph Barometer mB Rainfall Since 9am 24GHz 47GHz 76GHz 122GHz 134GHz 241GHz
25 00:50 10.6 90 8.79 9 0 0 1012.9 0 20.2 27.2 42.2 110.9 105.2 361.8
25 00:40 11.6 91 9.46 10.2 0 0 1013 0 21.5 28.0 44.5 117.0 113.1 389.7
25 00:30 11.7 91 9.52 10.3 0 6 1013.2 0 21.7 28.1 44.7 117.6 113.8 392.2
25 00:20 11.9 91 9.64 10.5 6 6 1013.3 0 21.9 28.2 45.1 118.7 115.2 397.1
25 00:10 11.9 90 9.53 10.3 6 6 1013.5 0 21.7 28.0 44.7 117.5 113.7 391.8
25 00:00 11.7 90 9.41 10.1 6 7 1013.7 0 21.4 27.9 44.3 116.4 112.3 386.9
24 23:50 11.7 89 9.31 9.9 6 7 1013.7 0 21.2 27.7 43.9 115.3 110.9 382.1
24 23:40 11.8 88 9.26 9.9 6 6 1013.8 0 21.1 27.6 43.6 114.6 110.1 379.2
24 23:30 11.7 87 9.1 9.6 0 0 1014 0 20.8 27.4 43.0 112.9 108.0 371.9
24 23:20 12.1 87 9.33 10 0 0 1014 0 21.2 27.6 43.7 114.9 110.7 381.1
24 23:10 12.4 87 9.51 10.3 0 0 1014.1 0 21.6 27.9 44.3 116.5 112.7 388.4
24 23:00 12.4 86 9.4 10.1 0 0 1014.3 0 21.4 27.7 43.9 115.3 111.2 383.2
24 22:50 12.5 84 9.24 9.9 0 0 1014.3 0 21.0 27.4 43.2 113.4 108.9 374.9
24 22:40 13.1 84 9.59 10.5 0 0 1014.4 0 21.7 27.8 44.3 116.4 112.8 388.9
24 22:30 13.8 84 10.01 11.1 2 6 1014.6 0 22.6 28.3 45.7 120.1 117.6 405.8
24 22:20 14.1 85 10.32 11.6 6 6 1014.6 0 23.3 28.7 46.8 123.2 121.5 419.3
24 22:10 14.1 84 10.19 11.4 6 6 1014.6 0 23.0 28.5 46.3 121.7 119.7 412.9
24 22:00 14.2 82 10.01 11.2 6 7 1014.8 0 22.6 28.2 45.5 119.5 117.0 403.7
24 21:50 14.4 81 10.01 11.2 7 7 1014.8 0 22.6 28.1 45.3 119.2 116.7 402.7
24 21:40 14.5 79 9.83 10.9 6 7 1014.8 0 22.2 27.8 44.5 117.1 114.1 393.5
24 21:30 14.6 78 9.76 10.8 7 9 1014.9 0 22.0 27.6 44.2 116.1 113.0 389.7
24 21:20 14.9 77 9.81 10.9 7 9 1014.7 0 22.1 27.6 44.2 116.2 113.2 390.5
24 21:10 15.3 75 9.79 10.9 4 6 1014.5 0 22.1 27.4 43.9 115.4 112.4 387.5
24 21:00 15.5 75 9.91 11.1 9 11 1014.6 0 22.3 27.6 44.3 116.4 113.7 392.2
24 20:50 15.8 74 9.96 11.2 7 9 1014.5 0 22.4 27.6 44.3 116.5 113.9 393.1
24 20:40 16.1 73 10.01 11.3 7 9 1014.4 0 22.5 27.5 44.3 116.6 114.2 393.9
24 20:30 16.5 71 9.97 11.2 11 13 1014.5 0 22.4 27.4 44.0 115.6 113.0 390.0
24 20:20 16.9 69 9.92 11.2 13 15 1014.4 0 22.2 27.2 43.5 114.4 111.8 385.7
24 20:10 17.4 67 9.93 11.2 13 15 1014.4 0 22.2 27.0 43.3 113.8 111.2 383.7
24 20:00 18 65 9.98 11.3 13 17 1014.5 0 22.3 26.9 43.2 113.5 111.0 383.1
24 19:50 18.5 63 9.97 11.3 15 15 1014.4 0 22.3 26.8 42.9 112.7 110.2 380.2
24 19:40 19.1 61 10 11.4 15 19 1014.4 0 22.3 26.6 42.7 112.1 109.7 378.7
24 19:30 19.5 59 9.9 11.3 15 20 1014.5 0 22.1 26.3 42.1 110.6 107.9 372.3
24 19:20 19.8 58 9.91 11.3 17 19 1014.3 0 22.1 26.3 41.9 110.2 107.6 371.3
24 19:10 20.3 56 9.85 11.2 19 20 1014.2 0 21.9 26.0 41.4 108.9 106.1 366.3
24 19:00 20.9 55 10.02 11.5 15 19 1014.3 0 22.2 26.1 41.8 109.8 107.4 371.0
24 18:50 21.3 54 10.06 11.6 19 20 1014.1 0 22.3 26.1 41.7 109.7 107.4 370.9
24 18:40 21.2 52 9.64 11 17 20 1014.1 0 21.4 25.4 40.2 105.5 102.3 353.0
24 18:30 21.4 53 9.94 11.4 15 22 1014.2 0 22.0 25.8 41.2 108.3 105.8 365.2
24 18:20 21.5 52 9.8 11.2 19 20 1014.2 0 21.7 25.6 40.6 106.8 103.9 358.6
24 18:10 21.8 51 9.78 11.2 19 22 1014.2 0 21.7 25.5 40.4 106.2 103.2 356.4
24 18:00 22.2 50 9.82 11.3 19 26 1014.3 0 21.8 25.4 40.4 106.1 103.2 356.4
24 17:50 22.7 49 9.9 11.4 17 26 1014.2 0 21.9 25.4 40.4 106.2 103.5 357.6
24 17:40 22.8 46 9.35 10.6 19 20 1014.2 0 20.7 24.6 38.3 100.6 96.7 333.8
24 17:30 22.9 45 9.2 10.3 19 24 1014.4 0 20.4 24.3 37.7 99.1 94.8 327.1
24 17:20 23.1 46 9.51 10.9 17 19 1014.4 0 21.1 24.7 38.8 101.8 98.3 339.3
24 17:10 22.9 45 9.2 10.3 17 20 1014.4 0 20.4 24.3 37.7 99.1 94.8 327.1
24 17:00 23.6 42 8.93 9.9 17 22 1014.5 0 19.8 23.8 36.5 95.7 90.8 313.2
24 16:50 23.2 47 9.77 11.3 17 20 1014.4 0 21.6 25.1 39.7 104.3 101.3 349.9
24 16:40 23.5 45 9.52 10.9 19 20 1014.4 0 21.1 24.6 38.6 101.4 97.9 338.1
24 16:30 23.5 44 9.3 10.6 19 24 1014.5 0 20.6 24.3 37.8 99.3 95.3 328.9
24 16:20 23.9 44 9.52 10.9 20 22 1014.6 0 21.0 24.5 38.4 101.0 97.5 336.4
24 16:10 24 42 9.14 10.3 15 20 1014.6 0 20.2 24.0 37.0 97.2 92.9 320.3
24 16:00 23.6 44 9.36 10.6 20 26 1014.7 0 20.7 24.4 38.0 99.8 95.9 331.0
24 15:50 24.1 42 9.19 10.4 22 32 1014.6 0 20.3 24.0 37.2 97.5 93.3 322.0
24 15:40 24.1 41 8.97 10 19 24 1014.6 0 19.9 23.7 36.4 95.5 90.7 313.0
24 15:30 24.6 40 9 10.1 22 32 1014.7 0 19.9 23.6 36.3 95.2 90.5 312.3
24 15:20 25 38 8.75 9.7 28 32 1014.7 0 19.4 23.1 35.2 92.4 87.2 300.7
24 15:10 24.6 37 8.33 9 22 32 1014.8 0 18.5 22.7 33.9 89.0 82.9 285.4
24 15:00 24.9 40 9.16 10.4 30 44 1015 0 20.2 23.8 36.7 96.4 92.1 317.7
24 14:50 25.5 43 10.18 12 26 30 1014.7 0 22.3 25.1 40.1 105.3 103.3 357.1
24 14:40 25.5 41 9.71 11.3 4 6 1014.8 0 21.4 24.4 38.4 100.8 97.8 337.7
24 14:30 25.4 43 10.12 11.9 13 20 1015 0 22.2 25.0 39.9 104.9 102.7 355.1
24 14:20 25.8 42 10.11 11.9 15 19 1014.9 0 22.2 24.9 39.7 104.3 102.1 352.9
24 14:10 25.3 41 9.6 11.1 19 24 1015 0 21.1 24.3 38.1 100.0 96.7 334.1
24 14:00 26.2 39 9.6 11.2 15 30 1015 0 21.1 24.1 37.7 98.9 95.7 330.4
24 13:50 25.8 41 9.87 11.6 13 17 1015.1 0 21.7 24.6 38.8 102.0 99.3 343.1
24 13:40 25.6 43 10.24 12.4 9 11 1015.2 0 22.5 25.1 40.3 105.8 103.9 359.3
24 13:30 25.5 41 9.71 11.3 17 28 1015.4 0 21.3 24.4 38.4 100.9 97.8 337.9
24 13:20 25.5 40 9.47 10.9 17 20 1015.4 0 20.8 24.1 37.6 98.6 95.0 328.0
24 13:10 25.7 39 9.34 10.7 13 17 1015.6 0 20.6 23.8 37.0 97.2 93.3 322.0
24 13:00 25.1 37 8.57 9.4 11 20 1015.8 0 19.0 22.9 34.6 90.7 85.1 293.4
24 12:50 24.2 39 8.58 9.4 11 15 1015.9 0 19.1 23.1 35.0 91.8 86.2 297.1
24 12:40 24.9 43 9.84 11.5 13 17 1016.1 0 21.7 24.8 39.2 102.9 100.1 346.0
24 12:30 24.7 41 9.28 10.6 9 13 1016.4 0 20.5 24.0 37.3 97.9 93.8 323.7
24 12:20 24.1 40 8.75 9.7 9 11 1016.4 0 19.4 23.4 35.7 93.6 88.3 304.5
24 12:10 23.9 42 9.09 10.2 6 9 1016.6 0 20.1 24.0 37.0 97.0 92.5 319.2
24 12:00 23 44 9.04 10.1 6 11 1016.8 0 20.1 24.1 37.2 97.6 93.0 320.7
24 11:50 22.9 43 8.79 9.7 9 11 1016.8 0 19.6 23.8 36.4 95.4 90.2 310.7
24 11:40 22.9 43 8.79 9.7 6 7 1016.9 0 19.6 23.8 36.4 95.4 90.2 310.8
24 11:30 22.8 45 9.14 10.3 11 17 1017.1 0 20.3 24.4 37.7 98.9 94.5 325.8
24 11:20 22.4 45 8.94 9.9 9 11 1017.2 0 19.9 24.2 37.1 97.4 92.5 319.0
24 11:10 21.9 47 9.07 10.1 13 15 1017.3 0 20.2 24.5 37.9 99.3 94.7 326.5
24 11:00 21.5 46 8.67 9.4 11 17 1017.5 0 19.4 24.0 36.6 95.9 90.4 311.3
24 10:50 21.4 49 9.19 10.3 11 17 1017.4 0 20.5 24.8 38.5 101.1 96.8 333.7
24 10:40 21.3 51 9.51 10.8 7 9 1017.6 0 21.1 25.3 39.8 104.5 100.8 347.9
24 10:30 20.8 51 9.23 10.3 7 17 1017.8 0 20.6 25.1 39.0 102.3 98.0 338.0
24 10:20 20.1 52 9.04 9.9 9 11 1017.9 0 20.2 25.0 38.6 101.3 96.6 332.8
24 10:10 20.4 55 9.73 11.1 9 17 1017.9 0 21.6 25.9 41.1 107.9 104.8 361.6
24 10:00 19.7 55 9.34 10.4 11 17 1018 0 20.9 25.5 40.0 104.9 100.8 347.6
24 09:50 18.6 59 9.39 10.4 6 6 1018 0 21.0 25.9 40.7 106.9 102.9 354.7
24 09:40 18.9 61 9.88 11.2 11 15 1017.9 0 22.0 26.6 42.5 111.5 108.7 375.3
24 09:30 18.3 60 9.38 10.4 11 20 1018.1 0 21.0 26.0 40.8 107.2 103.1 355.6
24 09:20 18.1 63 9.73 11 13 15 1017.9 0 21.8 26.6 42.3 111.1 107.9 372.2
24 09:10 17.9 65 9.92 11.2 13 15 1017.8 0 22.2 27.0 43.1 113.4 110.7 381.9
24 09:00 17.1 66 9.61 10.7 13 20 1017.9 0 21.6 26.7 42.3 111.2 107.7 371.5
24 08:50 17 69 9.98 11.3 11 13 1017.8 0 22.4 27.4 43.9 115.3 112.7 389.0
24 08:40 16.4 70 9.77 10.9 7 15 1017.8 0 21.9 27.2 43.4 113.9 110.8 382.2
24 08:30 16.2 71 9.79 10.9 9 15 1018 0 22.0 27.3 43.6 114.5 111.4 384.2
24 08:20 15.9 72 9.75 10.9 9 9 1017.8 0 21.9 27.3 43.6 114.4 111.3 383.7

Last Refresh: 25-Nov-2020 01:01:54

Most of the information presented on this site is sourced from the Bureau of Meteorology.  Copyright in all material sourced from the Bureau of Meteorology resides with the Commonwealth of Australia.